Time,TemperatureF,DewpointF,PressureIn,WindDirection,WindDirectionDegrees,WindSpeedMPH,WindSpeedGustMPH,Humidity,HourlyPrecipIn,Conditions,Clouds,dailyrainin,SoftwareType,DateUTC
2013-09-27 00:00:00,51.9,49.4,30.16,North,9,1.0,1.0,91,0.00,,,0.00,Wunderground v.1.15,2013-09-27 04:00:00,
2013-09-27 00:05:00,51.9,49.4,30.16,North,9,1.0,1.0,91,0.00,,,0.00,Wunderground v.1.15,2013-09-27 04:05:00,
2013-09-27 00:10:00,51.8,49.3,30.16,North,9,0.0,0.0,91,0.00,,,0.00,Wunderground v.1.15,2013-09-27 04:10:00,
2013-09-27 00:15:00,51.6,49.1,30.16,North,9,0.0,0.0,91,0.00,,,0.00,Wunderground v.1.15,2013-09-27 04:15:00,
2013-09-27 00:25:00,51.4,49.2,30.16,North,9,0.0,0.0,92,0.00,,,0.00,Wunderground v.1.15,2013-09-27 04:25:00,
2013-09-27 00:30:00,51.3,49.1,30.16,North,9,0.0,0.0,92,0.00,,,0.00,Wunderground v.1.15,2013-09-27 04:30:00,
2013-09-27 00:35:00,51.2,49.0,30.16,North,9,0.0,0.0,92,0.00,,,0.00,Wunderground v.1.15,2013-09-27 04:35:00,
2013-09-27 00:40:00,51.0,48.8,30.16,North,9,0.0,0.0,92,0.00,,,0.00,Wunderground v.1.15,2013-09-27 04:40:00,
2013-09-27 00:45:00,50.9,48.7,30.16,North,9,0.0,0.0,92,0.00,,,0.00,Wunderground v.1.15,2013-09-27 04:45:00,
2013-09-27 00:50:00,50.9,48.9,30.16,North,9,0.0,0.0,93,0.00,,,0.00,Wunderground v.1.15,2013-09-27 04:50:00,
2013-09-27 00:55:00,50.8,48.8,30.16,North,9,0.0,0.0,93,0.00,,,0.00,Wunderground v.1.15,2013-09-27 04:55:00,
2013-09-27 01:00:00,50.7,48.7,30.16,North,9,0.0,0.0,93,0.00,,,0.00,Wunderground v.1.15,2013-09-27 05:00:00,
2013-09-27 01:05:00,50.6,48.7,30.16,North,9,0.0,0.0,93,0.00,,,0.00,Wunderground v.1.15,2013-09-27 05:05:00,
2013-09-27 01:10:00,50.6,48.7,30.16,North,9,0.0,0.0,93,0.00,,,0.00,Wunderground v.1.15,2013-09-27 05:10:00,
2013-09-27 01:15:00,50.6,48.7,30.17,North,9,0.0,0.0,93,0.00,,,0.00,Wunderground v.1.15,2013-09-27 05:15:00,
2013-09-27 01:25:00,50.7,49.0,30.17,North,9,1.0,1.0,94,0.00,,,0.00,Wunderground v.1.15,2013-09-27 05:25:00,
2013-09-27 01:30:00,50.7,49.0,30.17,North,9,0.0,0.0,94,0.00,,,0.00,Wunderground v.1.15,2013-09-27 05:30:00,
2013-09-27 01:40:00,50.7,48.7,30.17,North,9,0.0,0.0,93,0.00,,,0.00,Wunderground v.1.15,2013-09-27 05:40:00,
2013-09-27 01:45:00,50.6,48.7,30.17,North,9,0.0,0.0,93,0.00,,,0.00,Wunderground v.1.15,2013-09-27 05:45:00,
2013-09-27 01:50:00,50.6,48.9,30.17,North,9,0.0,0.0,94,0.00,,,0.00,Wunderground v.1.15,2013-09-27 05:50:00,
2013-09-27 01:55:00,50.6,48.9,30.17,North,9,0.0,0.0,94,0.00,,,0.00,Wunderground v.1.15,2013-09-27 05:55:00,
2013-09-27 02:00:00,50.6,48.9,30.17,North,9,0.0,0.0,94,0.00,,,0.00,Wunderground v.1.15,2013-09-27 06:00:00,
2013-09-27 02:05:00,50.6,48.9,30.17,North,9,0.0,0.0,94,0.00,,,0.00,Wunderground v.1.15,2013-09-27 06:05:00,
2013-09-27 02:10:00,50.6,48.9,30.17,North,9,0.0,0.0,94,0.00,,,0.00,Wunderground v.1.15,2013-09-27 06:10:00,
2013-09-27 02:15:00,50.6,48.9,30.17,North,9,0.0,1.0,94,0.00,,,0.00,Wunderground v.1.15,2013-09-27 06:15:00,
2013-09-27 02:20:00,50.7,49.0,30.17,North,9,1.0,1.0,94,0.00,,,0.00,Wunderground v.1.15,2013-09-27 06:20:00,
2013-09-27 02:25:00,50.7,49.0,30.17,North,9,1.0,2.0,94,0.00,,,0.00,Wunderground v.1.15,2013-09-27 06:25:00,
2013-09-27 02:30:00,50.7,49.0,30.17,North,9,1.0,2.0,94,0.00,,,0.00,Wunderground v.1.15,2013-09-27 06:30:00,
2013-09-27 02:35:00,50.8,49.1,30.17,North,360,2.0,2.0,94,0.00,,,0.00,Wunderground v.1.15,2013-09-27 06:35:00,
2013-09-27 02:40:00,50.8,49.1,30.17,North,360,3.0,3.0,94,0.00,,,0.00,Wunderground v.1.15,2013-09-27 06:40:00,
2013-09-27 02:45:00,50.9,49.2,30.17,North,349,2.0,3.0,94,0.00,,,0.00,Wunderground v.1.15,2013-09-27 06:45:00,
2013-09-27 02:50:00,51.0,49.3,30.17,North,355,2.0,2.0,94,0.00,,,0.00,Wunderground v.1.15,2013-09-27 06:50:00,
2013-09-27 02:55:00,51.0,49.0,30.17,NNW,334,3.0,5.0,93,0.00,,,0.00,Wunderground v.1.15,2013-09-27 06:55:00,
2013-09-27 03:00:00,50.9,48.9,30.17,NNW,333,3.0,3.0,93,0.00,,,0.00,Wunderground v.1.15,2013-09-27 07:00:00,
2013-09-27 03:10:00,50.5,48.6,30.18,NNW,328,3.0,4.0,93,0.00,,,0.00,Wunderground v.1.15,2013-09-27 07:10:00,
2013-09-27 03:15:00,50.3,48.4,30.18,NW,326,3.0,4.0,93,0.00,,,0.00,Wunderground v.1.15,2013-09-27 07:15:00,
2013-09-27 03:20:00,50.1,48.4,30.18,NNW,340,3.0,3.0,94,0.00,,,0.00,Wunderground v.1.15,2013-09-27 07:20:00,
2013-09-27 03:25:00,49.9,48.2,30.18,NW,315,3.0,3.0,94,0.00,,,0.00,Wunderground v.1.15,2013-09-27 07:25:00,
2013-09-27 03:30:00,49.6,47.9,30.17,NW,314,3.0,3.0,94,0.00,,,0.00,Wunderground v.1.15,2013-09-27 07:30:00,
2013-09-27 03:35:00,49.3,47.6,30.17,NW,314,2.0,3.0,94,0.00,,,0.00,Wunderground v.1.15,2013-09-27 07:35:00,
2013-09-27 03:40:00,49.0,47.3,30.17,NW,314,1.0,2.0,94,0.00,,,0.00,Wunderground v.1.15,2013-09-27 07:40:00,
2013-09-27 03:45:00,48.8,47.2,30.18,NW,315,1.0,3.0,94,0.00,,,0.00,Wunderground v.1.15,2013-09-27 07:45:00,
2013-09-27 03:50:00,48.7,47.3,30.18,NW,315,2.0,2.0,95,0.00,,,0.00,Wunderground v.1.15,2013-09-27 07:50:00,
2013-09-27 03:55:00,48.6,47.2,30.18,NW,317,2.0,3.0,95,0.00,,,0.00,Wunderground v.1.15,2013-09-27 07:55:00,
2013-09-27 04:00:00,48.5,47.1,30.18,NNW,334,3.0,4.0,95,0.00,,,0.00,Wunderground v.1.15,2013-09-27 08:00:00,
2013-09-27 04:05:00,48.5,47.1,30.18,NNW,341,4.0,4.0,95,0.00,,,0.00,Wunderground v.1.15,2013-09-27 08:05:00,
2013-09-27 04:10:00,48.6,47.5,30.18,NW,317,4.0,4.0,96,0.00,,,0.00,Wunderground v.1.15,2013-09-27 08:10:00,
2013-09-27 04:15:00,48.5,47.1,30.19,NNW,331,4.0,4.0,95,0.00,,,0.00,Wunderground v.1.15,2013-09-27 08:15:00,
2013-09-27 04:20:00,48.4,47.0,30.19,NNW,340,4.0,4.0,95,0.00,,,0.00,Wunderground v.1.15,2013-09-27 08:20:00,
2013-09-27 04:25:00,48.2,46.8,30.19,NNW,340,3.0,4.0,95,0.00,,,0.00,Wunderground v.1.15,2013-09-27 08:25:00,
2013-09-27 04:30:00,48.1,46.7,30.19,NNW,340,3.0,5.0,95,0.00,,,0.00,Wunderground v.1.15,2013-09-27 08:30:00,
2013-09-27 04:40:00,48.1,46.7,30.19,NNW,340,3.0,3.0,95,0.00,,,0.00,Wunderground v.1.15,2013-09-27 08:40:00,
2013-09-27 04:45:00,48.0,46.6,30.19,NNW,333,3.0,4.0,95,0.00,,,0.00,Wunderground v.1.15,2013-09-27 08:45:00,
2013-09-27 04:55:00,47.7,46.3,30.20,NNW,333,3.0,3.0,95,0.00,,,0.00,Wunderground v.1.15,2013-09-27 08:55:00,
2013-09-27 05:00:00,47.5,46.1,30.20,NNW,333,2.0,2.0,95,0.00,,,0.00,Wunderground v.1.15,2013-09-27 09:00:00,
2013-09-27 05:05:00,47.5,46.4,30.20,NW,317,3.0,3.0,96,0.00,,,0.00,Wunderground v.1.15,2013-09-27 09:05:00,
2013-09-27 05:15:00,47.4,46.3,30.20,NW,317,1.0,3.0,96,0.00,,,0.00,Wunderground v.1.15,2013-09-27 09:15:00,
2013-09-27 05:20:00,47.4,46.3,30.20,NW,317,0.0,0.0,96,0.00,,,0.00,Wunderground v.1.15,2013-09-27 09:20:00,
2013-09-27 05:30:00,47.0,45.9,30.20,NW,317,0.0,0.0,96,0.00,,,0.00,Wunderground v.1.15,2013-09-27 09:30:00,
2013-09-27 05:35:00,47.1,46.0,30.20,NW,317,0.0,0.0,96,0.00,,,0.00,Wunderground v.1.15,2013-09-27 09:35:00,
2013-09-27 05:40:00,47.1,46.0,30.20,NW,317,0.0,0.0,96,0.00,,,0.00,Wunderground v.1.15,2013-09-27 09:40:00,
2013-09-27 05:45:00,47.0,45.9,30.20,NW,317,1.0,1.0,96,0.00,,,0.00,Wunderground v.1.15,2013-09-27 09:45:00,
2013-09-27 05:50:00,46.9,45.8,30.20,NW,317,1.0,2.0,96,0.00,,,0.00,Wunderground v.1.15,2013-09-27 09:50:00,
2013-09-27 05:55:00,46.9,45.8,30.21,NW,317,2.0,2.0,96,0.00,,,0.00,Wunderground v.1.15,2013-09-27 09:55:00,
2013-09-27 06:00:00,46.9,45.8,30.21,NW,317,2.0,2.0,96,0.00,,,0.00,Wunderground v.1.15,2013-09-27 10:00:00,
2013-09-27 06:10:00,46.7,45.6,30.21,NW,317,3.0,3.0,96,0.00,,,0.00,Wunderground v.1.15,2013-09-27 10:10:00,
2013-09-27 06:15:00,46.6,45.5,30.21,NW,317,3.0,3.0,96,0.00,,,0.00,Wunderground v.1.15,2013-09-27 10:15:00,
2013-09-27 06:20:00,46.6,45.5,30.22,NW,317,2.0,3.0,96,0.00,,,0.00,Wunderground v.1.15,2013-09-27 10:20:00,
2013-09-27 06:25:00,46.7,45.6,30.22,NW,317,2.0,3.0,96,0.00,,,0.00,Wunderground v.1.15,2013-09-27 10:25:00,
2013-09-27 06:30:00,46.7,45.6,30.22,NW,317,3.0,3.0,96,0.00,,,0.00,Wunderground v.1.15,2013-09-27 10:30:00,
2013-09-27 06:35:00,46.7,45.6,30.22,NW,317,2.0,3.0,96,0.00,,,0.00,Wunderground v.1.15,2013-09-27 10:35:00,
2013-09-27 06:40:00,46.6,45.5,30.22,NW,317,2.0,2.0,96,0.00,,,0.00,Wunderground v.1.15,2013-09-27 10:40:00,
2013-09-27 06:45:00,46.4,45.3,30.22,NW,317,2.0,3.0,96,0.00,,,0.00,Wunderground v.1.15,2013-09-27 10:45:00,
2013-09-27 06:50:00,46.4,45.3,30.22,NW,317,1.0,1.0,96,0.00,,,0.00,Wunderground v.1.15,2013-09-27 10:50:00,
2013-09-27 06:55:00,46.4,45.3,30.22,NW,317,1.0,4.0,96,0.00,,,0.00,Wunderground v.1.15,2013-09-27 10:55:00,
2013-09-27 07:00:00,46.5,45.4,30.22,NW,317,2.0,2.0,96,0.00,,,0.00,Wunderground v.1.15,2013-09-27 11:00:00,
2013-09-27 07:05:00,46.6,45.5,30.23,NW,317,1.0,2.0,96,0.00,,,0.00,Wunderground v.1.15,2013-09-27 11:05:00,
2013-09-27 07:10:00,46.7,45.6,30.23,NW,317,0.0,0.0,96,0.00,,,0.00,Wunderground v.1.15,2013-09-27 11:10:00,
2013-09-27 07:15:00,46.9,45.8,30.23,NW,317,1.0,1.0,96,0.00,,,0.00,Wunderground v.1.15,2013-09-27 11:15:00,
2013-09-27 07:20:00,47.0,46.2,30.23,NW,318,1.0,2.0,97,0.00,,,0.00,Wunderground v.1.15,2013-09-27 11:20:00,
2013-09-27 07:25:00,47.1,46.3,30.23,NW,318,2.0,2.0,97,0.00,,,0.00,Wunderground v.1.15,2013-09-27 11:25:00,
2013-09-27 07:30:00,47.4,46.6,30.23,NNW,348,2.0,5.0,97,0.00,,,0.00,Wunderground v.1.15,2013-09-27 11:30:00,
2013-09-27 07:35:00,47.5,46.7,30.23,NNW,342,3.0,5.0,97,0.00,,,0.00,Wunderground v.1.15,2013-09-27 11:35:00,
2013-09-27 07:40:00,47.7,46.9,30.23,NNW,343,3.0,3.0,97,0.00,,,0.00,Wunderground v.1.15,2013-09-27 11:40:00,
2013-09-27 07:45:00,48.1,47.3,30.23,NNW,343,2.0,3.0,97,0.00,,,0.00,Wunderground v.1.15,2013-09-27 11:45:00,
2013-09-27 07:55:00,49.0,48.2,30.23,NNW,342,3.0,3.0,97,0.00,,,0.00,Wunderground v.1.15,2013-09-27 11:55:00,
2013-09-27 08:00:00,49.4,48.3,30.23,NNW,341,4.0,4.0,96,0.00,,,0.00,Wunderground v.1.15,2013-09-27 12:00:00,
2013-09-27 08:10:00,49.8,48.7,30.23,NNW,342,3.0,5.0,96,0.00,,,0.00,Wunderground v.1.15,2013-09-27 12:10:00,
2013-09-27 08:15:00,50.0,48.6,30.23,NNW,344,4.0,5.0,95,0.00,,,0.00,Wunderground v.1.15,2013-09-27 12:15:00,
2013-09-27 08:20:00,50.4,49.3,30.23,NNW,342,3.0,4.0,96,0.00,,,0.00,Wunderground v.1.15,2013-09-27 12:20:00,
2013-09-27 08:25:00,50.7,49.3,30.23,NNW,345,3.0,5.0,95,0.00,,,0.00,Wunderground v.1.15,2013-09-27 12:25:00,
2013-09-27 08:30:00,51.1,49.4,30.24,NNW,341,4.0,4.0,94,0.00,,,0.00,Wunderground v.1.15,2013-09-27 12:30:00,
2013-09-27 08:35:00,51.3,49.6,30.24,NNW,336,4.0,5.0,94,0.00,,,0.00,Wunderground v.1.15,2013-09-27 12:35:00,
2013-09-27 08:40:00,51.7,49.7,30.24,NNW,342,4.0,4.0,93,0.00,,,0.00,Wunderground v.1.15,2013-09-27 12:40:00,
2013-09-27 08:45:00,52.1,50.1,30.24,WNW,298,4.0,4.0,93,0.00,,,0.00,Wunderground v.1.15,2013-09-27 12:45:00,
2013-09-27 08:50:00,52.6,50.0,30.24,NNW,344,4.0,4.0,91,0.00,,,0.00,Wunderground v.1.15,2013-09-27 12:50:00,
2013-09-27 08:55:00,53.0,50.4,30.24,NNW,339,4.0,4.0,91,0.00,,,0.00,Wunderground v.1.15,2013-09-27 12:55:00,
2013-09-27 09:00:00,53.5,50.6,30.24,NW,322,4.0,6.0,90,0.00,,,0.00,Wunderground v.1.15,2013-09-27 13:00:00,
2013-09-27 09:05:00,53.8,50.9,30.24,NW,320,4.0,6.0,90,0.00,,,0.00,Wunderground v.1.15,2013-09-27 13:05:00,
2013-09-27 09:10:00,54.1,50.9,30.23,NNW,336,4.0,4.0,89,0.00,,,0.00,Wunderground v.1.15,2013-09-27 13:10:00,
2013-09-27 09:15:00,54.4,51.2,30.24,NNW,346,4.0,5.0,89,0.00,,,0.00,Wunderground v.1.15,2013-09-27 13:15:00,
2013-09-27 09:20:00,54.6,51.4,30.24,North,355,4.0,5.0,89,0.00,,,0.00,Wunderground v.1.15,2013-09-27 13:20:00,
2013-09-27 09:25:00,54.8,51.6,30.24,NNW,336,4.0,5.0,89,0.00,,,0.00,Wunderground v.1.15,2013-09-27 13:25:00,
2013-09-27 09:30:00,55.1,51.6,30.24,North,360,3.0,3.0,88,0.00,,,0.00,Wunderground v.1.15,2013-09-27 13:30:00,
2013-09-27 09:35:00,55.6,52.4,30.24,NNW,344,2.0,3.0,89,0.00,,,0.00,Wunderground v.1.15,2013-09-27 13:35:00,
2013-09-27 09:40:00,56.1,52.3,30.24,North,355,1.0,1.0,87,0.00,,,0.00,Wunderground v.1.15,2013-09-27 13:40:00,
2013-09-27 09:45:00,57.0,53.2,30.24,North,360,2.0,2.0,87,0.00,,,0.00,Wunderground v.1.15,2013-09-27 13:45:00,
2013-09-27 09:50:00,57.4,52.9,30.24,North,11,1.0,4.0,85,0.00,,,0.00,Wunderground v.1.15,2013-09-27 13:50:00,
2013-09-27 09:55:00,57.5,52.4,30.24,NW,323,2.0,4.0,83,0.00,,,0.00,Wunderground v.1.15,2013-09-27 13:55:00,
2013-09-27 10:00:00,57.8,53.3,30.24,NNW,346,2.0,5.0,85,0.00,,,0.00,Wunderground v.1.15,2013-09-27 14:00:00,
2013-09-27 10:05:00,58.1,53.0,30.24,NNW,342,3.0,5.0,83,0.00,,,0.00,Wunderground v.1.15,2013-09-27 14:05:00,
2013-09-27 10:10:00,58.4,53.3,30.24,North,355,4.0,4.0,83,0.00,,,0.00,Wunderground v.1.15,2013-09-27 14:10:00,
2013-09-27 10:15:00,59.0,53.2,30.24,NW,319,3.0,4.0,81,0.00,,,0.00,Wunderground v.1.15,2013-09-27 14:15:00,
2013-09-27 10:20:00,59.1,53.6,30.24,NW,313,3.0,4.0,82,0.00,,,0.00,Wunderground v.1.15,2013-09-27 14:20:00,
2013-09-27 10:25:00,59.6,53.1,30.24,NW,322,3.0,4.0,79,0.00,,,0.00,Wunderground v.1.15,2013-09-27 14:25:00,
2013-09-27 10:30:00,59.9,54.1,30.23,North,355,4.0,6.0,81,0.00,,,0.00,Wunderground v.1.15,2013-09-27 14:30:00,
2013-09-27 10:40:00,60.7,53.8,30.24,NW,318,5.0,5.0,78,0.00,,,0.00,Wunderground v.1.15,2013-09-27 14:40:00,
2013-09-27 10:45:00,61.0,53.7,30.23,NW,324,5.0,6.0,77,0.00,,,0.00,Wunderground v.1.15,2013-09-27 14:45:00,
2013-09-27 10:50:00,61.6,53.2,30.23,North,355,5.0,6.0,74,0.00,,,0.00,Wunderground v.1.15,2013-09-27 14:50:00,
2013-09-27 11:00:00,62.3,52.4,30.23,NW,313,9.0,9.0,70,0.00,,,0.00,Wunderground v.1.15,2013-09-27 15:00:00,
2013-09-27 11:05:00,62.7,53.5,30.23,NNW,341,8.0,10.0,72,0.00,,,0.00,Wunderground v.1.15,2013-09-27 15:05:00,
2013-09-27 11:15:00,63.0,52.7,30.23,NW,311,7.0,15.0,69,0.00,,,0.00,Wunderground v.1.15,2013-09-27 15:15:00,
2013-09-27 11:20:00,63.1,52.8,30.23,NW,325,8.0,9.0,69,0.00,,,0.00,Wunderground v.1.15,2013-09-27 15:20:00,
2013-09-27 11:25:00,63.4,52.2,30.23,NNW,334,9.0,13.0,67,0.00,,,0.00,Wunderground v.1.15,2013-09-27 15:25:00,
2013-09-27 11:30:00,63.6,52.0,30.23,NW,326,9.0,9.0,66,0.00,,,0.00,Wunderground v.1.15,2013-09-27 15:30:00,
2013-09-27 11:35:00,63.9,52.7,30.23,NNW,327,8.0,9.0,67,0.00,,,0.00,Wunderground v.1.15,2013-09-27 15:35:00,
2013-09-27 11:40:00,63.9,52.3,30.22,NW,323,7.0,7.0,66,0.00,,,0.00,Wunderground v.1.15,2013-09-27 15:40:00,
2013-09-27 11:45:00,63.9,52.7,30.22,NW,316,7.0,10.0,67,0.00,,,0.00,Wunderground v.1.15,2013-09-27 15:45:00,
2013-09-27 11:50:00,64.0,52.0,30.22,NW,319,8.0,8.0,65,0.00,,,0.00,Wunderground v.1.15,2013-09-27 15:50:00,
2013-09-27 11:55:00,64.2,52.6,30.22,NW,307,8.0,8.0,66,0.00,,,0.00,Wunderground v.1.15,2013-09-27 15:55:00,
2013-09-27 12:00:00,64.2,53.4,30.22,NW,311,7.0,11.0,68,0.00,,,0.00,Wunderground v.1.15,2013-09-27 16:00:00,
2013-09-27 12:10:00,64.7,53.9,30.21,NW,325,7.0,7.0,68,0.00,,,0.00,Wunderground v.1.15,2013-09-27 16:10:00,
2013-09-27 12:15:00,65.1,53.9,30.21,NW,311,6.0,7.0,67,0.00,,,0.00,Wunderground v.1.15,2013-09-27 16:15:00,
2013-09-27 12:20:00,65.2,53.1,30.21,NW,314,6.0,6.0,65,0.00,,,0.00,Wunderground v.1.15,2013-09-27 16:20:00,
2013-09-27 12:25:00,65.2,54.4,30.21,NNW,338,6.0,11.0,68,0.00,,,0.00,Wunderground v.1.15,2013-09-27 16:25:00,
2013-09-27 12:30:00,65.5,53.4,30.21,NNE,13,5.0,5.0,65,0.00,,,0.00,Wunderground v.1.15,2013-09-27 16:30:00,
2013-09-27 12:40:00,65.6,52.2,30.21,WNW,294,7.0,9.0,62,0.00,,,0.00,Wunderground v.1.15,2013-09-27 16:40:00,
2013-09-27 12:45:00,65.6,53.5,30.21,NNW,343,8.0,9.0,65,0.00,,,0.00,Wunderground v.1.15,2013-09-27 16:45:00,
2013-09-27 12:55:00,66.2,52.8,30.21,North,350,7.0,12.0,62,0.00,,,0.00,Wunderground v.1.15,2013-09-27 16:55:00,
2013-09-27 13:00:00,66.3,52.4,30.20,North,355,8.0,8.0,61,0.00,,,0.00,Wunderground v.1.15,2013-09-27 17:00:00,
2013-09-27 13:05:00,66.6,52.7,30.20,NNW,329,8.0,11.0,61,0.00,,,0.00,Wunderground v.1.15,2013-09-27 17:05:00,
2013-09-27 13:15:00,66.7,52.4,30.20,NNW,330,8.0,10.0,60,0.00,,,0.00,Wunderground v.1.15,2013-09-27 17:15:00,
2013-09-27 13:25:00,65.9,51.2,30.20,WNW,291,9.0,9.0,59,0.00,,,0.00,Wunderground v.1.15,2013-09-27 17:25:00,
2013-09-27 13:30:00,66.1,52.3,30.20,NW,317,9.0,11.0,61,0.00,,,0.00,Wunderground v.1.15,2013-09-27 17:30:00,
2013-09-27 13:35:00,66.6,52.7,30.20,North,360,7.0,11.0,61,0.00,,,0.00,Wunderground v.1.15,2013-09-27 17:35:00,
2013-09-27 13:40:00,66.8,51.5,30.20,NNW,331,7.0,9.0,58,0.00,,,0.00,Wunderground v.1.15,2013-09-27 17:40:00,
2013-09-27 13:45:00,66.8,52.0,30.20,North,5,8.0,13.0,59,0.00,,,0.00,Wunderground v.1.15,2013-09-27 17:45:00,
2013-09-27 13:50:00,66.9,52.1,30.20,North,5,8.0,8.0,59,0.00,,,0.00,Wunderground v.1.15,2013-09-27 17:50:00,
2013-09-27 13:55:00,67.0,52.2,30.19,NW,318,7.0,10.0,59,0.00,,,0.00,Wunderground v.1.15,2013-09-27 17:55:00,
2013-09-27 14:00:00,67.1,51.8,30.20,North,11,8.0,10.0,58,0.00,,,0.00,Wunderground v.1.15,2013-09-27 18:00:00,
2013-09-27 14:05:00,66.6,51.8,30.20,NNW,341,8.0,10.0,59,0.00,,,0.00,Wunderground v.1.15,2013-09-27 18:05:00,
2013-09-27 14:10:00,66.6,51.8,30.20,NNW,329,7.0,7.0,59,0.00,,,0.00,Wunderground v.1.15,2013-09-27 18:10:00,
2013-09-27 14:15:00,67.0,51.7,30.20,NW,320,5.0,7.0,58,0.00,,,0.00,Wunderground v.1.15,2013-09-27 18:15:00,
2013-09-27 14:20:00,67.4,52.1,30.20,NNW,328,7.0,9.0,58,0.00,,,0.00,Wunderground v.1.15,2013-09-27 18:20:00,
2013-09-27 14:25:00,67.3,50.1,30.20,NNW,335,8.0,10.0,54,0.00,,,0.00,Wunderground v.1.15,2013-09-27 18:25:00,
2013-09-27 14:30:00,67.2,51.0,30.20,NNW,343,8.0,14.0,56,0.00,,,0.00,Wunderground v.1.15,2013-09-27 18:30:00,
2013-09-27 14:35:00,67.3,51.5,30.19,North,9,7.0,14.0,57,0.00,,,0.00,Wunderground v.1.15,2013-09-27 18:35:00,
2013-09-27 14:40:00,67.5,50.8,30.19,NNW,327,7.0,11.0,55,0.00,,,0.00,Wunderground v.1.15,2013-09-27 18:40:00,
2013-09-27 14:45:00,67.6,49.9,30.19,NNW,337,7.0,11.0,53,0.00,,,0.00,Wunderground v.1.15,2013-09-27 18:45:00,
2013-09-27 14:50:00,67.6,50.9,30.19,NW,317,7.0,12.0,55,0.00,,,0.00,Wunderground v.1.15,2013-09-27 18:50:00,
2013-09-27 14:55:00,67.4,50.7,30.19,North,355,7.0,12.0,55,0.00,,,0.00,Wunderground v.1.15,2013-09-27 18:55:00,
2013-09-27 15:01:00,67.7,50.9,30.18,NNW,339,7.0,7.0,55,0.00,,,0.00,Wunderground v.1.15,2013-09-27 19:01:00,
2013-09-27 15:05:00,67.9,50.6,30.19,NNW,347,7.0,9.0,54,0.00,,,0.00,Wunderground v.1.15,2013-09-27 19:05:00,
2013-09-27 15:15:00,67.9,49.6,30.19,NE,38,7.0,7.0,52,0.00,,,0.00,Wunderground v.1.15,2013-09-27 19:15:00,
2013-09-27 15:20:00,67.9,50.6,30.19,NNW,342,6.0,12.0,54,0.00,,,0.00,Wunderground v.1.15,2013-09-27 19:20:00,
2013-09-27 15:25:00,67.7,48.9,30.19,NW,322,6.0,7.0,51,0.00,,,0.00,Wunderground v.1.15,2013-09-27 19:25:00,
2013-09-27 15:30:00,67.8,50.0,30.19,NW,314,6.0,10.0,53,0.00,,,0.00,Wunderground v.1.15,2013-09-27 19:30:00,
2013-09-27 15:35:00,67.9,49.1,30.19,North,355,6.0,6.0,51,0.00,,,0.00,Wunderground v.1.15,2013-09-27 19:35:00,
2013-09-27 15:40:00,67.7,50.5,30.18,NW,307,6.0,10.0,54,0.00,,,0.00,Wunderground v.1.15,2013-09-27 19:40:00,
2013-09-27 15:45:00,67.5,50.3,30.19,North,355,8.0,8.0,54,0.00,,,0.00,Wunderground v.1.15,2013-09-27 19:45:00,
2013-09-27 15:50:00,67.4,51.2,30.19,NNE,19,7.0,8.0,56,0.00,,,0.00,Wunderground v.1.15,2013-09-27 19:50:00,
2013-09-27 15:55:00,67.6,50.4,30.19,NW,321,6.0,10.0,54,0.00,,,0.00,Wunderground v.1.15,2013-09-27 19:55:00,
2013-09-27 16:00:00,67.4,50.2,30.19,NNW,340,7.0,7.0,54,0.00,,,0.00,Wunderground v.1.15,2013-09-27 20:00:00,
2013-09-27 16:10:00,67.2,49.5,30.18,NNW,346,6.0,6.0,53,0.00,,,0.00,Wunderground v.1.15,2013-09-27 20:10:00,
2013-09-27 16:15:00,67.2,51.4,30.19,NNW,340,5.0,6.0,57,0.00,,,0.00,Wunderground v.1.15,2013-09-27 20:15:00,
2013-09-27 16:25:00,67.1,50.4,30.19,North,360,5.0,6.0,55,0.00,,,0.00,Wunderground v.1.15,2013-09-27 20:25:00,
2013-09-27 16:30:00,67.0,50.3,30.19,North,355,5.0,5.0,55,0.00,,,0.00,Wunderground v.1.15,2013-09-27 20:30:00,
2013-09-27 16:35:00,66.9,49.7,30.19,NNW,344,5.0,5.0,54,0.00,,,0.00,Wunderground v.1.15,2013-09-27 20:35:00,
2013-09-27 16:45:00,66.6,48.9,30.19,NNW,327,6.0,7.0,53,0.00,,,0.00,Wunderground v.1.15,2013-09-27 20:45:00,
2013-09-27 16:55:00,66.4,49.7,30.19,NW,306,4.0,9.0,55,0.00,,,0.00,Wunderground v.1.15,2013-09-27 20:55:00,
2013-09-27 17:00:00,66.2,50.0,30.19,North,360,5.0,5.0,56,0.00,,,0.00,Wunderground v.1.15,2013-09-27 21:00:00,
2013-09-27 17:05:00,66.1,49.9,30.19,NNW,329,5.0,9.0,56,0.00,,,0.00,Wunderground v.1.15,2013-09-27 21:05:00,
2013-09-27 17:10:00,65.9,49.8,30.20,NNW,344,5.0,5.0,56,0.00,,,0.00,Wunderground v.1.15,2013-09-27 21:10:00,
2013-09-27 17:15:00,65.8,50.1,30.19,NW,317,4.0,5.0,57,0.00,,,0.00,Wunderground v.1.15,2013-09-27 21:15:00,
2013-09-27 17:20:00,65.5,50.3,30.19,NW,307,3.0,3.0,58,0.00,,,0.00,Wunderground v.1.15,2013-09-27 21:20:00,
2013-09-27 17:25:00,65.2,50.0,30.19,NNW,327,3.0,4.0,58,0.00,,,0.00,Wunderground v.1.15,2013-09-27 21:25:00,
2013-09-27 17:30:00,64.9,49.8,30.19,WNW,300,3.0,3.0,58,0.00,,,0.00,Wunderground v.1.15,2013-09-27 21:30:00,
2013-09-27 17:35:00,64.5,49.8,30.20,WNW,300,2.0,3.0,59,0.00,,,0.00,Wunderground v.1.15,2013-09-27 21:35:00,
2013-09-27 17:45:00,63.8,50.1,30.20,NW,309,1.0,2.0,61,0.00,,,0.00,Wunderground v.1.15,2013-09-27 21:45:00,
2013-09-27 17:50:00,63.3,49.6,30.20,NW,309,1.0,2.0,61,0.00,,,0.00,Wunderground v.1.15,2013-09-27 21:50:00,
2013-09-27 17:55:00,62.9,50.1,30.20,NW,309,1.0,2.0,63,0.00,,,0.00,Wunderground v.1.15,2013-09-27 21:55:00,
2013-09-27 18:00:00,62.1,49.8,30.20,NW,309,0.0,0.0,64,0.00,,,0.00,Wunderground v.1.15,2013-09-27 22:00:00,
2013-09-27 18:05:00,61.6,49.3,30.20,NW,309,0.0,0.0,64,0.00,,,0.00,Wunderground v.1.15,2013-09-27 22:05:00,
2013-09-27 18:10:00,61.2,49.3,30.20,NW,309,0.0,1.0,65,0.00,,,0.00,Wunderground v.1.15,2013-09-27 22:10:00,
2013-09-27 18:15:00,60.8,49.4,30.20,NW,309,0.0,1.0,66,0.00,,,0.00,Wunderground v.1.15,2013-09-27 22:15:00,
2013-09-27 18:20:00,60.5,49.1,30.20,NW,309,0.0,0.0,66,0.00,,,0.00,Wunderground v.1.15,2013-09-27 22:20:00,
2013-09-27 18:25:00,60.2,48.8,30.20,NW,309,0.0,0.0,66,0.00,,,0.00,Wunderground v.1.15,2013-09-27 22:25:00,
2013-09-27 18:30:00,59.8,48.8,30.20,NW,309,0.0,0.0,67,0.00,,,0.00,Wunderground v.1.15,2013-09-27 22:30:00,
2013-09-27 18:35:00,59.5,48.5,30.20,NW,309,0.0,0.0,67,0.00,,,0.00,Wunderground v.1.15,2013-09-27 22:35:00,
2013-09-27 18:40:00,59.4,48.4,30.21,NW,309,0.0,0.0,67,0.00,,,0.00,Wunderground v.1.15,2013-09-27 22:40:00,
2013-09-27 18:45:00,59.0,48.4,30.21,NW,309,0.0,0.0,68,0.00,,,0.00,Wunderground v.1.15,2013-09-27 22:45:00,
2013-09-27 18:50:00,59.0,48.4,30.21,NW,309,0.0,0.0,68,0.00,,,0.00,Wunderground v.1.15,2013-09-27 22:50:00,
2013-09-27 19:00:00,58.7,48.2,30.21,NW,309,0.0,0.0,68,0.00,,,0.00,Wunderground v.1.15,2013-09-27 23:00:00,
2013-09-27 19:05:00,58.4,48.3,30.21,NW,309,0.0,0.0,69,0.00,,,0.00,Wunderground v.1.15,2013-09-27 23:05:00,
2013-09-27 19:10:00,58.2,48.5,30.21,NW,309,0.0,0.0,70,0.00,,,0.00,Wunderground v.1.15,2013-09-27 23:10:00,
2013-09-27 19:15:00,58.0,48.6,30.22,NW,309,0.0,0.0,71,0.00,,,0.00,Wunderground v.1.15,2013-09-27 23:15:00,
2013-09-27 19:25:00,57.6,48.6,30.22,NW,309,0.0,0.0,72,0.00,,,0.00,Wunderground v.1.15,2013-09-27 23:25:00,
2013-09-27 19:30:00,57.3,48.3,30.22,NW,309,0.0,0.0,72,0.00,,,0.00,Wunderground v.1.15,2013-09-27 23:30:00,
2013-09-27 19:40:00,57.1,48.5,30.22,NW,309,0.0,0.0,73,0.00,,,0.00,Wunderground v.1.15,2013-09-27 23:40:00,
2013-09-27 19:45:00,56.9,48.3,30.23,NW,309,0.0,0.0,73,0.00,,,0.00,Wunderground v.1.15,2013-09-27 23:45:00,
2013-09-27 19:55:00,56.5,48.3,30.22,NW,309,0.0,0.0,74,0.00,,,0.00,Wunderground v.1.15,2013-09-27 23:55:00,
2013-09-27 20:00:00,56.0,48.2,30.22,NW,309,0.0,0.0,75,0.00,,,0.00,Wunderground v.1.15,2013-09-28 00:00:00,
2013-09-27 20:05:00,55.8,48.3,30.23,NW,309,0.0,0.0,76,0.00,,,0.00,Wunderground v.1.15,2013-09-28 00:05:00,
2013-09-27 20:10:00,55.7,48.2,30.23,NW,309,0.0,0.0,76,0.00,,,0.00,Wunderground v.1.15,2013-09-28 00:10:00,
2013-09-27 20:15:00,55.7,48.6,30.23,NW,309,0.0,0.0,77,0.00,,,0.00,Wunderground v.1.15,2013-09-28 00:15:00,
2013-09-27 20:20:00,55.7,48.6,30.23,NW,309,0.0,0.0,77,0.00,,,0.00,Wunderground v.1.15,2013-09-28 00:20:00,
2013-09-27 20:30:00,55.6,48.2,30.23,NW,309,0.0,0.0,76,0.00,,,0.00,Wunderground v.1.15,2013-09-28 00:30:00,
2013-09-27 20:35:00,55.3,48.2,30.23,NW,309,0.0,0.0,77,0.00,,,0.00,Wunderground v.1.15,2013-09-28 00:35:00,
2013-09-27 20:40:00,55.0,47.9,30.23,NW,309,0.0,0.0,77,0.00,,,0.00,Wunderground v.1.15,2013-09-28 00:40:00,
2013-09-27 20:45:00,54.7,48.0,30.23,NW,309,0.0,0.0,78,0.00,,,0.00,Wunderground v.1.15,2013-09-28 00:45:00,
2013-09-27 20:50:00,54.4,48.0,30.24,NW,309,0.0,0.0,79,0.00,,,0.00,Wunderground v.1.15,2013-09-28 00:50:00,
2013-09-27 20:55:00,53.9,48.5,30.24,NW,309,0.0,0.0,82,0.00,,,0.00,Wunderground v.1.15,2013-09-28 00:55:00,
2013-09-27 21:00:00,53.3,47.6,30.24,NW,309,0.0,0.0,81,0.00,,,0.00,Wunderground v.1.15,2013-09-28 01:00:00,
2013-09-27 21:05:00,52.9,47.6,30.24,NW,309,0.0,0.0,82,0.00,,,0.00,Wunderground v.1.15,2013-09-28 01:05:00,
2013-09-27 21:10:00,52.5,47.2,30.24,NW,309,0.0,0.0,82,0.00,,,0.00,Wunderground v.1.15,2013-09-28 01:10:00,
2013-09-27 21:15:00,52.0,47.3,30.24,NW,309,0.0,0.0,84,0.00,,,0.00,Wunderground v.1.15,2013-09-28 01:15:00,
2013-09-27 21:20:00,51.7,47.3,30.24,NW,309,0.0,0.0,85,0.00,,,0.00,Wunderground v.1.15,2013-09-28 01:20:00,
2013-09-27 21:25:00,51.2,47.2,30.24,NW,309,0.0,0.0,86,0.00,,,0.00,Wunderground v.1.15,2013-09-28 01:25:00,
2013-09-27 21:30:00,50.9,47.2,30.24,NW,309,0.0,0.0,87,0.00,,,0.00,Wunderground v.1.15,2013-09-28 01:30:00,
2013-09-27 21:35:00,50.8,47.4,30.24,NW,309,0.0,0.0,88,0.00,,,0.00,Wunderground v.1.15,2013-09-28 01:35:00,
2013-09-27 21:40:00,50.7,47.3,30.24,NW,309,0.0,0.0,88,0.00,,,0.00,Wunderground v.1.15,2013-09-28 01:40:00,
2013-09-27 21:45:00,50.6,47.5,30.24,NW,309,0.0,0.0,89,0.00,,,0.00,Wunderground v.1.15,2013-09-28 01:45:00,
2013-09-27 21:50:00,50.5,47.4,30.24,NW,309,0.0,0.0,89,0.00,,,0.00,Wunderground v.1.15,2013-09-28 01:50:00,
2013-09-27 21:55:00,50.2,47.1,30.24,NW,309,0.0,0.0,89,0.00,,,0.00,Wunderground v.1.15,2013-09-28 01:55:00,
2013-09-27 22:00:00,49.7,46.6,30.24,NW,309,0.0,0.0,89,0.00,,,0.00,Wunderground v.1.15,2013-09-28 02:00:00,
2013-09-27 22:10:00,49.1,46.3,30.25,NW,309,0.0,0.0,90,0.00,,,0.00,Wunderground v.1.15,2013-09-28 02:10:00,
2013-09-27 22:15:00,48.6,46.1,30.25,NW,309,0.0,0.0,91,0.00,,,0.00,Wunderground v.1.15,2013-09-28 02:15:00,
2013-09-27 22:20:00,48.5,46.3,30.25,NW,309,0.0,0.0,92,0.00,,,0.00,Wunderground v.1.15,2013-09-28 02:20:00,
2013-09-27 22:25:00,48.3,46.1,30.25,NW,309,0.0,0.0,92,0.00,,,0.00,Wunderground v.1.15,2013-09-28 02:25:00,
2013-09-27 22:30:00,48.1,46.2,30.25,NW,309,0.0,0.0,93,0.00,,,0.00,Wunderground v.1.15,2013-09-28 02:30:00,
2013-09-27 22:35:00,47.9,46.0,30.25,NW,309,0.0,0.0,93,0.00,,,0.00,Wunderground v.1.15,2013-09-28 02:35:00,
2013-09-27 22:40:00,47.8,45.9,30.25,NW,309,0.0,0.0,93,0.00,,,0.00,Wunderground v.1.15,2013-09-28 02:40:00,
2013-09-27 22:45:00,47.6,45.7,30.25,NW,309,0.0,0.0,93,0.00,,,0.00,Wunderground v.1.15,2013-09-28 02:45:00,
2013-09-27 22:50:00,47.4,45.5,30.25,NW,309,0.0,0.0,93,0.00,,,0.00,Wunderground v.1.15,2013-09-28 02:50:00,
2013-09-27 22:55:00,47.3,45.4,30.25,NW,309,0.0,0.0,93,0.00,,,0.00,Wunderground v.1.15,2013-09-28 02:55:00,
2013-09-27 23:00:00,47.1,45.2,30.25,NW,309,0.0,0.0,93,0.00,,,0.00,Wunderground v.1.15,2013-09-28 03:00:00,
2013-09-27 23:05:00,47.0,45.4,30.26,NW,309,0.0,0.0,94,0.00,,,0.00,Wunderground v.1.15,2013-09-28 03:05:00,
2013-09-27 23:10:00,47.0,45.4,30.26,NW,309,0.0,0.0,94,0.00,,,0.00,Wunderground v.1.15,2013-09-28 03:10:00,
2013-09-27 23:15:00,47.1,45.5,30.26,NW,309,0.0,0.0,94,0.00,,,0.00,Wunderground v.1.15,2013-09-28 03:15:00,
2013-09-27 23:25:00,47.2,45.6,30.26,NW,309,0.0,0.0,94,0.00,,,0.00,Wunderground v.1.15,2013-09-28 03:25:00,
2013-09-27 23:30:00,47.1,45.5,30.26,NW,309,0.0,0.0,94,0.00,,,0.00,Wunderground v.1.15,2013-09-28 03:30:00,
2013-09-27 23:35:00,47.0,45.4,30.26,NW,309,0.0,0.0,94,0.00,,,0.00,Wunderground v.1.15,2013-09-28 03:35:00,
2013-09-27 23:40:00,46.7,45.1,30.26,NW,309,0.0,0.0,94,0.00,,,0.00,Wunderground v.1.15,2013-09-28 03:40:00,
2013-09-27 23:45:00,46.4,44.8,30.26,NW,309,0.0,0.0,94,0.00,,,0.00,Wunderground v.1.15,2013-09-28 03:45:00,
2013-09-27 23:50:00,46.2,44.6,30.26,NW,309,0.0,0.0,94,0.00,,,0.00,Wunderground v.1.15,2013-09-28 03:50:00,
2013-09-27 23:55:00,46.0,44.4,30.26,NW,309,0.0,0.0,94,0.00,,,0.00,Wunderground v.1.15,2013-09-28 03:55:00,